createdAt,value
2023-03-26T00:01:10.606Z,5.72
2023-03-26T00:03:39.187Z,8.88
2023-03-26T00:06:10.686Z,5.35
2023-03-26T00:08:37.865Z,5.55
2023-03-26T00:11:05.310Z,4.97
2023-03-26T00:13:32.370Z,6.10
2023-03-26T00:15:59.196Z,8.10
2023-03-26T00:18:30.711Z,10.10
2023-03-26T00:21:02.715Z,8.75
2023-03-26T00:23:29.795Z,3.38
2023-03-26T00:25:56.710Z,4.80
2023-03-26T00:28:24.222Z,3.95
2023-03-26T00:30:57.060Z,4.72
2023-03-26T00:33:23.948Z,5.20
2023-03-26T00:35:54.884Z,5.82
2023-03-26T00:38:24.708Z,4.72
2023-03-26T00:40:51.924Z,4.40
2023-03-26T00:43:19.473Z,5.00
2023-03-26T00:45:47.680Z,3.90
2023-03-26T00:48:15.010Z,3.75
2023-03-26T00:50:41.667Z,3.72
2023-03-26T00:53:08.919Z,3.90
2023-03-26T00:55:35.851Z,4.10
2023-03-26T00:58:02.558Z,3.70
2023-03-26T01:00:31.965Z,2.97
2023-03-26T01:02:59.057Z,3.03
2023-03-26T01:05:35.028Z,3.47
2023-03-26T01:08:22.974Z,3.10
2023-03-26T01:10:52.864Z,3.65
2023-03-26T01:13:23.444Z,3.33
2023-03-26T01:15:51.169Z,2.85
2023-03-26T01:18:19.900Z,2.78
2023-03-26T01:20:49.737Z,2.85
2023-03-26T01:23:21.629Z,3.67
2023-03-26T01:25:54.909Z,2.83
2023-03-26T01:28:21.719Z,2.63
2023-03-26T01:30:53.857Z,2.70
2023-03-26T01:33:23.844Z,2.75
2023-03-26T01:36:09.353Z,2.75
2023-03-26T01:38:41.093Z,3.08
2023-03-26T01:41:12.458Z,3.50
2023-03-26T01:43:43.679Z,3.55
2023-03-26T01:46:11.397Z,3.42
2023-03-26T01:48:39.808Z,3.58
2023-03-26T01:51:06.749Z,4.25
2023-03-26T01:53:35.086Z,5.05
2023-03-26T01:56:21.471Z,4.35
2023-03-26T01:59:07.370Z,6.22
2023-03-26T02:01:44.985Z,5.47
2023-03-26T02:04:22.697Z,5.30
2023-03-26T02:07:21.150Z,5.15
2023-03-26T02:09:50.030Z,5.63
2023-03-26T02:14:43.574Z,5.93
2023-03-26T02:17:10.975Z,6.55
2023-03-26T02:19:42.052Z,5.93
2023-03-26T02:22:11.349Z,6.10
2023-03-26T02:24:38.695Z,6.32
2023-03-26T02:27:07.798Z,6.57
2023-03-26T02:29:40.374Z,6.70
2023-03-26T02:32:08.888Z,6.90
2023-03-26T02:34:36.788Z,6.05
2023-03-26T02:37:03.539Z,7.95
2023-03-26T02:39:30.235Z,7.18
2023-03-26T02:41:56.852Z,7.22
2023-03-26T02:44:23.628Z,6.45
2023-03-26T02:46:50.470Z,6.55
2023-03-26T02:49:17.079Z,7.22
2023-03-26T02:51:43.795Z,5.90
2023-03-26T02:54:10.431Z,5.57
2023-03-26T02:56:37.228Z,4.10
2023-03-26T02:59:04.015Z,4.03
2023-03-26T03:01:30.989Z,4.40
2023-03-26T03:03:57.828Z,4.13
2023-03-26T03:06:26.548Z,5.07
2023-03-26T03:08:54.148Z,5.40
2023-03-26T03:11:26.592Z,4.97
2023-03-26T03:13:53.251Z,4.90
2023-03-26T03:16:20.152Z,5.00
2023-03-26T03:18:54.524Z,5.57
2023-03-26T03:21:21.426Z,5.03
2023-03-26T03:23:48.111Z,5.20
2023-03-26T03:26:17.873Z,4.88
2023-03-26T03:28:45.320Z,6.20
2023-03-26T03:31:12.064Z,6.07
2023-03-26T03:33:38.847Z,5.88
2023-03-26T03:36:19.825Z,7.90
2023-03-26T03:38:48.043Z,8.45
2023-03-26T03:41:14.654Z,6.45
2023-03-26T03:43:41.364Z,6.22
2023-03-26T03:46:08.058Z,6.93
2023-03-26T03:48:38.151Z,5.28
2023-03-26T03:51:05.308Z,4.35
2023-03-26T03:53:32.023Z,4.63
2023-03-26T03:55:59.773Z,5.38
2023-03-26T03:58:28.285Z,5.65
2023-03-26T04:01:03.137Z,8.50
2023-03-26T04:03:34.157Z,8.23
2023-03-26T04:06:01.597Z,5.70
2023-03-26T04:08:28.382Z,6.55
2023-03-26T04:10:55.080Z,5.70
2023-03-26T04:13:22.091Z,6.43
2023-03-26T04:15:48.864Z,5.38
2023-03-26T04:18:15.681Z,17.50
2023-03-26T04:20:46.365Z,15.18
2023-03-26T04:23:14.407Z,10.70
2023-03-26T04:25:49.802Z,10.43
2023-03-26T04:28:26.543Z,8.10
2023-03-26T04:30:54.612Z,10.48
2023-03-26T04:33:21.280Z,13.68
2023-03-26T04:35:51.186Z,9.05
2023-03-26T04:38:18.583Z,4.53
2023-03-26T04:40:47.466Z,7.93
2023-03-26T04:43:16.420Z,9.00
2023-03-26T04:45:43.863Z,8.27
2023-03-26T04:48:14.389Z,8.68
2023-03-26T04:50:44.582Z,5.20
2023-03-26T04:53:13.507Z,5.00
2023-03-26T04:55:52.487Z,3.72
2023-03-26T04:58:19.318Z,3.92
2023-03-26T05:00:47.536Z,3.47
2023-03-26T05:03:14.279Z,4.20
2023-03-26T05:05:41.009Z,4.40
2023-03-26T05:08:07.777Z,3.22
2023-03-26T05:10:34.558Z,3.80
2023-03-26T05:13:01.459Z,3.80
2023-03-26T05:15:28.094Z,3.38
2023-03-26T05:17:55.718Z,3.83
2023-03-26T05:20:26.496Z,3.90
2023-03-26T05:22:53.192Z,3.67
2023-03-26T05:25:19.955Z,4.20
2023-03-26T05:27:46.716Z,3.78
2023-03-26T05:30:17.517Z,3.25
2023-03-26T05:32:44.398Z,3.85
2023-03-26T05:35:11.797Z,3.55
2023-03-26T05:37:38.973Z,3.42
2023-03-26T05:40:11.704Z,3.15
2023-03-26T05:42:39.281Z,4.18
2023-03-26T05:45:07.618Z,3.40
2023-03-26T05:47:34.415Z,3.25
2023-03-26T05:50:01.195Z,3.35
2023-03-26T05:52:28.056Z,3.28
2023-03-26T05:54:54.694Z,3.17
2023-03-26T05:57:22.435Z,2.70
2023-03-26T05:59:49.158Z,2.90
2023-03-26T06:02:17.103Z,2.65
2023-03-26T06:04:46.015Z,3.17
2023-03-26T06:07:12.899Z,2.78
2023-03-26T06:09:39.844Z,2.10
2023-03-26T06:12:07.252Z,2.35
2023-03-26T06:14:33.988Z,1.60
2023-03-26T06:17:00.781Z,1.67
2023-03-26T06:19:27.549Z,1.80
2023-03-26T06:21:54.317Z,3.10
2023-03-26T06:24:21.879Z,2.20
2023-03-26T06:26:48.603Z,1.88
2023-03-26T06:29:15.559Z,1.80
2023-03-26T06:31:42.499Z,1.98
2023-03-26T06:34:09.285Z,1.30
2023-03-26T06:36:37.019Z,1.63
2023-03-26T06:39:07.789Z,2.00
2023-03-26T06:41:35.414Z,1.40
2023-03-26T06:44:02.228Z,1.75
2023-03-26T06:46:29.178Z,1.35
2023-03-26T06:48:55.921Z,1.23
2023-03-26T06:51:22.577Z,1.60
2023-03-26T06:53:49.768Z,1.60
2023-03-26T06:56:16.598Z,1.20
2023-03-26T06:58:43.345Z,1.30
2023-03-26T07:01:10.159Z,1.20
2023-03-26T07:03:37.005Z,1.40
2023-03-26T07:06:03.832Z,1.00
2023-03-26T07:08:31.744Z,1.27
2023-03-26T07:10:58.567Z,1.60
2023-03-26T07:13:25.443Z,1.40
2023-03-26T07:15:52.145Z,0.93
2023-03-26T07:18:18.960Z,1.05
2023-03-26T07:20:46.476Z,0.80
2023-03-26T07:23:15.658Z,1.38
2023-03-26T07:25:42.747Z,1.55
2023-03-26T07:28:18.544Z,0.95
2023-03-26T07:30:53.631Z,1.13
2023-03-26T07:33:27.217Z,1.45
2023-03-26T07:35:58.887Z,2.00
2023-03-26T07:38:45.125Z,1.00
2023-03-26T07:41:25.306Z,1.40
2023-03-26T07:44:04.189Z,1.10
2023-03-26T07:46:37.038Z,1.35
2023-03-26T07:49:04.696Z,1.17
2023-03-26T07:51:32.083Z,1.30
2023-03-26T07:54:00.631Z,1.50
2023-03-26T07:56:35.104Z,1.20
2023-03-26T08:01:46.840Z,1.85
2023-03-26T08:04:26.351Z,1.50
2023-03-26T08:07:32.106Z,1.48
2023-03-26T08:10:08.139Z,1.65
2023-03-26T08:12:59.143Z,1.75
2023-03-26T08:15:32.880Z,1.70
2023-03-26T08:18:31.264Z,2.05
2023-03-26T08:21:19.569Z,2.80
2023-03-26T08:24:05.033Z,2.30
2023-03-26T08:26:49.093Z,1.90
2023-03-26T08:29:23.815Z,2.38
2023-03-26T08:31:50.940Z,1.80
2023-03-26T08:34:17.665Z,1.20
2023-03-26T08:36:44.431Z,1.98
2023-03-26T08:39:11.775Z,0.93
2023-03-26T08:42:03.324Z,1.17
2023-03-26T08:45:00.466Z,1.10
2023-03-26T08:47:51.371Z,0.90
2023-03-26T08:50:30.019Z,1.23
2023-03-26T08:53:11.644Z,1.00
2023-03-26T08:55:49.678Z,1.00
2023-03-26T08:58:37.636Z,1.00
2023-03-26T09:01:23.400Z,1.33
2023-03-26T09:04:19.777Z,0.90
2023-03-26T09:07:18.876Z,0.82
2023-03-26T09:10:22.975Z,0.70
2023-03-26T09:13:09.204Z,0.88
2023-03-26T09:15:59.353Z,1.13
2023-03-26T09:18:57.754Z,0.50
2023-03-26T09:21:50.073Z,0.47
2023-03-26T09:24:19.778Z,0.63
2023-03-26T09:26:51.492Z,0.60
2023-03-26T09:29:33.620Z,0.55
2023-03-26T09:32:20.733Z,0.50
2023-03-26T09:34:56.729Z,0.50
2023-03-26T09:37:56.844Z,0.52
2023-03-26T09:40:29.704Z,0.65
2023-03-26T09:42:57.026Z,0.40
2023-03-26T09:45:38.893Z,2.25
2023-03-26T09:48:08.858Z,0.30
2023-03-26T09:50:57.001Z,0.43
2023-03-26T09:53:41.604Z,0.40
2023-03-26T09:56:30.400Z,0.20
2023-03-26T09:59:09.577Z,0.30
2023-03-26T10:01:51.611Z,0.50
2023-03-26T10:04:40.610Z,0.40
2023-03-26T10:07:22.598Z,0.43
2023-03-26T10:10:01.379Z,0.50
2023-03-26T10:12:37.339Z,0.20
2023-03-26T10:15:58.610Z,0.32
2023-03-26T10:18:57.384Z,0.70
2023-03-26T10:29:27.176Z,0.65
2023-03-26T10:32:31.665Z,1.25
2023-03-26T10:35:23.223Z,0.60
2023-03-26T10:38:14.912Z,0.40
2023-03-26T10:41:21.805Z,0.50
2023-03-26T10:44:10.471Z,0.50
2023-03-26T10:46:58.677Z,0.95
2023-03-26T10:49:50.948Z,0.15
2023-03-26T10:52:31.936Z,0.22
2023-03-26T10:55:16.242Z,0.28
2023-03-26T10:58:14.348Z,0.73
2023-03-26T11:00:44.826Z,0.20
2023-03-26T11:03:27.328Z,0.30
2023-03-26T11:06:32.889Z,0.30
2023-03-26T11:09:05.341Z,0.30
2023-03-26T11:11:32.754Z,0.60
2023-03-26T11:14:05.240Z,0.50
2023-03-26T11:16:47.431Z,0.35
2023-03-26T11:19:20.657Z,0.30
2023-03-26T11:22:04.198Z,1.77
2023-03-26T11:24:57.074Z,0.30
2023-03-26T11:27:33.836Z,0.90
2023-03-26T11:30:22.308Z,0.20
2023-03-26T11:32:53.021Z,0.90
2023-03-26T11:35:40.818Z,0.93
2023-03-26T11:38:25.182Z,0.80
2023-03-26T11:40:54.327Z,1.00
2023-03-26T11:43:24.628Z,0.80
2023-03-26T11:45:51.983Z,1.08
2023-03-26T11:48:57.481Z,0.80
2023-03-26T11:51:32.193Z,0.60
2023-03-26T11:54:00.072Z,1.58
2023-03-26T11:56:32.103Z,0.55
2023-03-26T11:59:09.382Z,0.80
2023-03-26T12:01:50.573Z,0.40
2023-03-26T12:04:31.781Z,0.50
2023-03-26T12:07:09.673Z,0.30
2023-03-26T12:09:36.435Z,0.47
2023-03-26T12:12:04.155Z,1.00
2023-03-26T12:14:32.814Z,0.40
2023-03-26T12:17:35.886Z,0.60
2023-03-26T12:20:06.752Z,0.45
2023-03-26T12:22:38.151Z,0.60
2023-03-26T12:25:18.255Z,0.50
2023-03-26T12:28:04.992Z,1.23
2023-03-26T12:30:37.205Z,0.40
2023-03-26T12:33:28.084Z,0.50
2023-03-26T12:35:56.293Z,0.43
2023-03-26T12:41:08.599Z,0.90
2023-03-26T12:44:53.471Z,0.50
2023-03-26T12:47:57.721Z,0.50
2023-03-26T12:49:32.226Z,0.60
2023-03-26T12:52:08.908Z,1.63
2023-03-26T12:54:48.530Z,0.68
2023-03-26T12:57:22.850Z,0.68
2023-03-26T13:00:14.482Z,0.90
2023-03-26T13:02:53.399Z,0.73
2023-03-26T13:05:34.250Z,0.93
2023-03-26T13:08:25.331Z,1.45
2023-03-26T13:11:29.567Z,0.52
2023-03-26T13:14:08.841Z,0.75
2023-03-26T13:16:36.731Z,0.68
2023-03-26T13:19:24.823Z,1.13
2023-03-26T13:21:53.531Z,0.70
2023-03-26T13:24:45.373Z,1.05
2023-03-26T13:27:29.774Z,0.85
2023-03-26T13:30:14.828Z,1.00
2023-03-26T13:32:51.045Z,5.28
2023-03-26T13:35:27.419Z,0.90
2023-03-26T13:38:00.478Z,3.75
2023-03-26T13:40:31.488Z,3.67
2023-03-26T13:43:22.955Z,2.00
2023-03-26T13:45:49.653Z,1.45
2023-03-26T13:48:50.768Z,1.90
2023-03-26T13:52:00.973Z,2.80
2023-03-26T13:54:28.939Z,2.00
2023-03-26T13:57:04.856Z,0.93
2023-03-26T13:59:35.822Z,2.55
2023-03-26T14:02:06.368Z,2.25
2023-03-26T14:04:47.693Z,1.80
2023-03-26T14:07:29.618Z,2.08
2023-03-26T14:10:06.259Z,2.42
2023-03-26T14:12:52.484Z,13.13
2023-03-26T14:15:35.294Z,12.98
2023-03-26T14:18:20.525Z,1.73
2023-03-26T14:21:02.127Z,2.55
2023-03-26T14:23:51.383Z,3.22
2023-03-26T14:26:40.566Z,1.77
2023-03-26T14:29:28.935Z,5.05
2023-03-26T14:32:24.145Z,2.30
2023-03-26T14:35:00.168Z,2.83
2023-03-26T14:37:42.083Z,3.15
2023-03-26T14:40:30.048Z,2.90
2023-03-26T14:43:21.505Z,3.72
2023-03-26T14:46:15.817Z,4.05
2023-03-26T14:48:58.488Z,3.20
2023-03-26T14:51:47.114Z,4.32
2023-03-26T14:54:16.116Z,3.08
2023-03-26T14:56:51.631Z,3.70
2023-03-26T14:59:39.225Z,3.83
2023-03-26T15:02:21.425Z,3.08
2023-03-26T15:04:53.872Z,2.78
2023-03-26T15:07:30.284Z,4.32
2023-03-26T15:10:22.605Z,4.82
2023-03-26T15:13:22.800Z,3.88
2023-03-26T15:16:07.659Z,5.63
2023-03-26T15:18:49.328Z,5.05
2023-03-26T15:21:34.471Z,8.88
2023-03-26T15:24:45.463Z,4.75
2023-03-26T15:27:29.577Z,4.45
2023-03-26T15:30:02.037Z,6.30
2023-03-26T15:33:06.867Z,6.53
2023-03-26T15:35:48.058Z,7.85
2023-03-26T15:38:38.564Z,7.75
2023-03-26T15:41:16.720Z,7.88
2023-03-26T15:44:24.871Z,7.97
2023-03-26T15:46:57.856Z,8.25
2023-03-26T15:49:39.852Z,7.20
2023-03-26T15:52:43.722Z,7.72
2023-03-26T15:55:11.245Z,10.85
2023-03-26T15:58:02.531Z,6.30
2023-03-26T16:00:31.883Z,9.57
2023-03-26T16:02:58.440Z,11.90
2023-03-26T16:05:42.041Z,8.93
2023-03-26T16:08:14.991Z,6.40
2023-03-26T16:11:00.423Z,5.28
2023-03-26T16:13:30.656Z,6.05
2023-03-26T16:16:03.571Z,5.90
2023-03-26T16:18:34.099Z,6.13
2023-03-26T16:21:31.712Z,5.63
2023-03-26T16:24:08.167Z,5.57
2023-03-26T16:26:44.060Z,6.85
2023-03-26T16:29:14.405Z,7.22
2023-03-26T16:31:58.982Z,8.23
2023-03-26T16:34:28.623Z,8.00
2023-03-26T16:36:56.013Z,9.32
2023-03-26T16:39:22.834Z,10.48
2023-03-26T16:41:56.534Z,10.00
2023-03-26T16:44:42.188Z,8.90
2023-03-26T16:47:26.783Z,11.02
2023-03-26T16:50:08.946Z,10.02
2023-03-26T16:53:00.980Z,12.52
2023-03-26T16:56:04.536Z,16.33
2023-03-26T16:58:37.875Z,11.15
2023-03-26T17:01:16.224Z,9.45
2023-03-26T17:03:45.025Z,11.43
2023-03-26T17:06:17.520Z,10.40
2023-03-26T17:09:16.458Z,10.02
2023-03-26T17:12:07.308Z,10.73
2023-03-26T17:14:51.557Z,12.35
2023-03-26T17:17:53.647Z,12.10
2023-03-26T17:20:33.543Z,6.63
2023-03-26T17:23:06.277Z,7.72
2023-03-26T17:26:15.025Z,8.57
2023-03-26T17:28:50.989Z,7.43
2023-03-26T17:31:48.025Z,5.88
2023-03-26T17:34:39.151Z,7.18
2023-03-26T17:37:20.936Z,9.45
2023-03-26T17:39:47.574Z,7.60
2023-03-26T17:42:32.824Z,8.02
2023-03-26T17:45:03.104Z,6.60
2023-03-26T17:47:38.312Z,5.65
2023-03-26T17:50:20.780Z,6.00
2023-03-26T17:53:13.469Z,5.68
2023-03-26T17:55:40.187Z,9.38
2023-03-26T17:58:15.486Z,9.50
2023-03-26T18:00:43.452Z,7.53
2023-03-26T18:03:49.458Z,10.02
2023-03-26T18:06:32.787Z,8.43
2023-03-26T18:09:18.150Z,7.95
2023-03-26T18:11:57.545Z,6.55
2023-03-26T18:14:39.862Z,5.90
2023-03-26T18:17:06.591Z,6.78
2023-03-26T18:19:47.047Z,6.10
2023-03-26T18:22:18.207Z,7.20
2023-03-26T18:24:44.826Z,9.35
2023-03-26T18:27:18.908Z,9.25
2023-03-26T18:30:16.444Z,11.18
2023-03-26T18:32:52.566Z,11.85
2023-03-26T18:35:23.346Z,11.77
2023-03-26T18:37:50.907Z,10.48
2023-03-26T18:40:20.246Z,8.85
2023-03-26T18:42:56.464Z,9.57
2023-03-26T18:45:23.021Z,16.50
2023-03-26T18:47:53.319Z,16.55
2023-03-26T18:50:25.007Z,15.65
2023-03-26T18:52:51.744Z,13.73
2023-03-26T18:55:18.401Z,18.75
2023-03-26T18:57:45.095Z,13.02
2023-03-26T19:00:20.772Z,12.45
2023-03-26T19:02:48.271Z,15.15
2023-03-26T19:05:18.774Z,13.82
2023-03-26T19:07:48.097Z,22.52
2023-03-26T19:10:16.510Z,18.90
2023-03-26T19:12:43.180Z,11.38
2023-03-26T19:15:13.512Z,13.13
2023-03-26T19:17:44.883Z,13.30
2023-03-26T19:20:17.814Z,18.25
2023-03-26T19:22:44.773Z,15.20
2023-03-26T19:25:20.375Z,12.18
2023-03-26T19:27:47.108Z,12.02
2023-03-26T19:30:32.955Z,12.70
2023-03-26T19:33:20.695Z,11.77
2023-03-26T19:36:05.000Z,10.45
2023-03-26T19:38:38.867Z,4.28
2023-03-26T19:41:05.615Z,11.50
2023-03-26T19:43:32.312Z,7.55
2023-03-26T19:45:59.210Z,7.43
2023-03-26T19:51:20.140Z,7.45
2023-03-26T19:53:49.823Z,4.57
2023-03-26T19:56:18.568Z,7.50
2023-03-26T19:58:45.330Z,6.88
2023-03-26T20:01:18.302Z,5.53
2023-03-26T20:03:47.064Z,4.70
2023-03-26T20:06:15.542Z,8.50
2023-03-26T20:08:42.886Z,5.57
2023-03-26T20:11:15.639Z,5.32
2023-03-26T20:13:42.333Z,6.72
2023-03-26T20:16:33.653Z,4.90
2023-03-26T20:19:04.677Z,6.53
2023-03-26T20:21:38.278Z,7.70
2023-03-26T20:24:12.621Z,3.42
2023-03-26T20:26:39.289Z,3.03
2023-03-26T20:29:06.171Z,8.52
2023-03-26T20:31:33.062Z,6.93
2023-03-26T20:34:00.036Z,5.68
2023-03-26T20:36:33.836Z,8.02
2023-03-26T20:39:02.372Z,10.13
2023-03-26T20:41:29.070Z,6.45
2023-03-26T20:43:55.758Z,4.47
2023-03-26T20:46:23.404Z,7.57
2023-03-26T20:48:58.063Z,5.22
2023-03-26T20:51:24.721Z,5.32
2023-03-26T20:53:51.418Z,9.48
2023-03-26T20:56:19.306Z,6.10
2023-03-26T20:58:47.842Z,4.10
2023-03-26T21:01:14.678Z,3.67
2023-03-26T21:03:41.357Z,6.72
2023-03-26T21:06:15.960Z,6.95
2023-03-26T21:08:43.512Z,4.43
2023-03-26T21:11:15.865Z,4.05
2023-03-26T21:14:00.408Z,4.53
2023-03-26T21:16:27.340Z,4.65
2023-03-26T21:18:54.360Z,3.60
2023-03-26T21:21:49.340Z,2.30
2023-03-26T21:24:33.194Z,3.40
2023-03-26T21:27:09.721Z,6.13
2023-03-26T21:29:36.866Z,4.70
2023-03-26T21:32:05.601Z,5.93
2023-03-26T21:34:34.103Z,5.00
2023-03-26T21:37:01.547Z,3.85
2023-03-26T21:39:28.979Z,3.38
2023-03-26T21:42:05.328Z,4.38
2023-03-26T21:44:33.458Z,15.80
2023-03-26T21:47:00.441Z,8.18
2023-03-26T21:49:27.509Z,7.70
2023-03-26T21:51:54.525Z,4.55
2023-03-26T21:54:22.391Z,3.78
2023-03-26T21:57:07.953Z,4.35
2023-03-26T21:59:51.480Z,5.80
2023-03-26T22:02:50.812Z,15.57
2023-03-26T22:05:19.146Z,4.65
2023-03-26T22:07:56.539Z,3.22
2023-03-26T22:10:23.319Z,2.97
2023-03-26T22:12:50.139Z,3.00
2023-03-26T22:15:18.300Z,3.40
2023-03-26T22:17:45.521Z,3.55
2023-03-26T22:20:14.228Z,2.38
2023-03-26T22:22:41.581Z,3.63
2023-03-26T22:25:10.423Z,2.55
2023-03-26T22:30:11.950Z,2.70
2023-03-26T22:32:39.030Z,2.33
2023-03-26T22:35:06.207Z,2.90
2023-03-26T22:37:33.204Z,2.85
2023-03-26T22:39:59.998Z,2.75
2023-03-26T22:42:26.717Z,2.42
2023-03-26T22:44:53.431Z,3.90
2023-03-26T22:47:21.857Z,3.88
2023-03-26T22:49:48.543Z,3.17
2023-03-26T22:52:15.177Z,2.58
2023-03-26T22:54:42.295Z,2.92
2023-03-26T22:57:09.011Z,2.70
2023-03-26T22:59:35.706Z,3.80
2023-03-26T23:02:02.436Z,3.75
2023-03-26T23:04:32.203Z,3.95
2023-03-26T23:06:59.205Z,2.80
2023-03-26T23:09:25.891Z,2.85
2023-03-26T23:11:52.598Z,2.25
2023-03-26T23:14:19.283Z,2.03
2023-03-26T23:16:45.951Z,2.60
2023-03-26T23:19:12.694Z,3.38
2023-03-26T23:21:40.052Z,1.92
2023-03-26T23:24:06.927Z,2.50
2023-03-26T23:26:43.897Z,1.95
2023-03-26T23:29:16.682Z,2.10
2023-03-26T23:31:43.346Z,2.03
2023-03-26T23:34:11.039Z,2.50
2023-03-26T23:36:37.695Z,2.45
2023-03-26T23:39:04.848Z,2.00
2023-03-26T23:41:31.524Z,2.50
2023-03-26T23:43:58.208Z,2.50
2023-03-26T23:46:30.273Z,2.05
2023-03-26T23:48:59.945Z,1.85
2023-03-26T23:51:26.790Z,2.50
2023-03-26T23:53:53.917Z,3.08
2023-03-26T23:56:21.102Z,3.72
2023-03-26T23:58:48.942Z,3.17
